createdAt,value
2017-03-31T00:00:16.583Z,1015.23
2017-03-31T00:01:27.566Z,1015.23
2017-03-31T00:02:38.562Z,1015.22
2017-03-31T00:03:49.600Z,1015.23
2017-03-31T00:05:00.590Z,1015.18
2017-03-31T00:06:11.581Z,1015.16
2017-03-31T00:07:22.569Z,1015.18
2017-03-31T00:08:33.763Z,1015.21
2017-03-31T00:09:44.746Z,1015.11
2017-03-31T00:10:55.723Z,1015.11
2017-03-31T00:12:06.709Z,1015.1
2017-03-31T00:13:18.147Z,1015.08
2017-03-31T00:14:29.141Z,1015.05
2017-03-31T00:15:40.523Z,1015.05
2017-03-31T00:16:51.517Z,1015.04
2017-03-31T00:18:02.502Z,1015.01
2017-03-31T00:19:13.477Z,1015.01
2017-03-31T00:20:24.460Z,1014.96
2017-03-31T00:21:35.447Z,1015.02
2017-03-31T00:22:46.437Z,1014.99
2017-03-31T00:23:57.471Z,1014.98
2017-03-31T00:25:08.456Z,1014.96
2017-03-31T00:26:19.851Z,1014.99
2017-03-31T00:27:30.848Z,1014.92
2017-03-31T00:28:41.831Z,1014.91
2017-03-31T00:29:52.816Z,1014.92
2017-03-31T00:31:03.801Z,1014.87
2017-03-31T00:32:14.789Z,1014.85
2017-03-31T00:33:25.780Z,1014.79
2017-03-31T00:34:36.768Z,1014.78
2017-03-31T00:35:47.750Z,1014.78
2017-03-31T00:36:58.744Z,1014.78
2017-03-31T00:38:09.935Z,1014.77
2017-03-31T00:39:20.933Z,1014.74
2017-03-31T00:40:31.974Z,1014.72
2017-03-31T00:41:43.166Z,1014.69
2017-03-31T00:42:54.164Z,1014.69
2017-03-31T00:44:05.151Z,1014.64
2017-03-31T00:45:16.137Z,1014.62
2017-03-31T00:46:27.129Z,1014.66
2017-03-31T00:47:38.111Z,1014.6
2017-03-31T00:48:49.305Z,1014.6
2017-03-31T00:50:00.337Z,1014.6
2017-03-31T00:51:11.338Z,1014.58
2017-03-31T00:52:22.328Z,1014.57
2017-03-31T00:53:33.313Z,1014.54
2017-03-31T00:54:44.299Z,1014.49
2017-03-31T00:55:55.492Z,1014.47
2017-03-31T00:57:06.483Z,1014.46
2017-03-31T00:58:17.478Z,1014.49
2017-03-31T00:59:28.464Z,1014.44
2017-03-31T01:00:39.707Z,1014.46
2017-03-31T01:01:50.690Z,1014.43
2017-03-31T01:03:01.678Z,1014.41
2017-03-31T01:04:12.667Z,1014.41
2017-03-31T01:05:23.648Z,1014.37
2017-03-31T01:06:34.836Z,1014.39
2017-03-31T01:07:46.023Z,1014.39
2017-03-31T01:08:57.011Z,1014.34
2017-03-31T01:10:07.991Z,1014.33
2017-03-31T01:11:19.184Z,1014.28
2017-03-31T01:12:30.179Z,1014.29
2017-03-31T01:13:41.164Z,1014.27
2017-03-31T01:14:52.149Z,1014.27
2017-03-31T01:16:03.136Z,1014.2
2017-03-31T01:17:14.202Z,1014.22
2017-03-31T01:18:25.188Z,1014.2
2017-03-31T01:19:36.581Z,1014.16
2017-03-31T01:20:47.767Z,1014.11
2017-03-31T01:21:58.780Z,1014.11
2017-03-31T01:23:09.783Z,1014.1
2017-03-31T01:24:20.769Z,1014.11
2017-03-31T01:25:31.753Z,1014.08
2017-03-31T01:26:42.792Z,1014.07
2017-03-31T01:27:53.782Z,1014.05
2017-03-31T01:29:04.772Z,1014.02
2017-03-31T01:30:15.773Z,1014
2017-03-31T01:31:26.762Z,1013.96
2017-03-31T01:32:37.761Z,1013.93
2017-03-31T01:33:48.741Z,1013.87
2017-03-31T01:34:59.726Z,1013.84
2017-03-31T01:36:10.722Z,1013.81
2017-03-31T01:37:21.969Z,1013.82
2017-03-31T01:38:32.958Z,1013.78
2017-03-31T01:39:43.943Z,1013.75
2017-03-31T01:40:55.136Z,1013.73
2017-03-31T01:42:06.120Z,1013.71
2017-03-31T01:43:17.131Z,1013.68
2017-03-31T01:44:28.359Z,1013.67
2017-03-31T01:45:39.344Z,1013.69
2017-03-31T01:46:50.331Z,1013.69
2017-03-31T01:48:01.334Z,1013.64
2017-03-31T01:49:12.328Z,1013.66
2017-03-31T01:50:23.322Z,1013.63
2017-03-31T01:51:34.345Z,1013.63
2017-03-31T01:52:45.329Z,1013.64
2017-03-31T01:53:56.311Z,1013.62
2017-03-31T01:55:07.304Z,1013.65
2017-03-31T01:56:18.293Z,1013.61
2017-03-31T01:57:29.316Z,1013.58
2017-03-31T01:58:40.303Z,1013.55
2017-03-31T01:59:51.340Z,1013.57
2017-03-31T02:01:02.324Z,1013.51
2017-03-31T02:02:13.314Z,1013.48
2017-03-31T02:03:24.310Z,1013.51
2017-03-31T02:04:35.494Z,1013.44
2017-03-31T02:05:46.479Z,1013.44
2017-03-31T02:06:57.460Z,1013.42
2017-03-31T02:08:08.450Z,1013.41
2017-03-31T02:09:19.681Z,1013.38
2017-03-31T02:10:30.676Z,1013.36
2017-03-31T02:11:41.671Z,1013.35
2017-03-31T02:12:52.653Z,1013.34
2017-03-31T02:14:03.839Z,1013.34
2017-03-31T02:15:14.823Z,1013.33
2017-03-31T02:16:26.216Z,1013.29
2017-03-31T02:17:37.201Z,1013.29
2017-03-31T02:18:48.190Z,1013.28
2017-03-31T02:19:59.227Z,1013.27
2017-03-31T02:21:10.418Z,1013.26
2017-03-31T02:22:21.603Z,1013.21
2017-03-31T02:23:32.584Z,1013.22
2017-03-31T02:24:43.801Z,1013.19
2017-03-31T02:25:54.786Z,1013.2
2017-03-31T02:27:05.769Z,1013.18
2017-03-31T02:28:16.960Z,1013.13
2017-03-31T02:29:27.949Z,1013.18
2017-03-31T02:30:38.948Z,1013.13
2017-03-31T02:31:49.947Z,1013.12
2017-03-31T02:33:00.930Z,1013.1
2017-03-31T02:34:11.908Z,1013.06
2017-03-31T02:35:22.929Z,1013.08
2017-03-31T02:36:33.921Z,1013.1
2017-03-31T02:37:44.964Z,1013.09
2017-03-31T02:38:56.208Z,1013.08
2017-03-31T02:40:07.188Z,1013.07
2017-03-31T02:41:18.181Z,1012.97
2017-03-31T02:42:29.371Z,1013.04
2017-03-31T02:43:40.555Z,1012.99
2017-03-31T02:44:51.549Z,1012.99
2017-03-31T02:46:02.533Z,1012.96
2017-03-31T02:47:13.607Z,1012.96
2017-03-31T02:48:24.592Z,1012.94
2017-03-31T02:49:35.988Z,1012.95
2017-03-31T02:50:46.972Z,1012.98
2017-03-31T02:51:57.954Z,1012.92
2017-03-31T02:53:09.139Z,1012.88
2017-03-31T02:54:20.123Z,1012.89
2017-03-31T02:55:31.109Z,1012.85
2017-03-31T02:56:42.305Z,1012.85
2017-03-31T02:57:53.341Z,1012.81
2017-03-31T02:59:04.324Z,1012.79
2017-03-31T03:00:15.303Z,1012.75
2017-03-31T03:01:26.281Z,1012.72
2017-03-31T03:02:37.264Z,1012.74
2017-03-31T03:03:48.257Z,1012.74
2017-03-31T03:04:59.247Z,1012.72
2017-03-31T03:06:10.232Z,1012.71
2017-03-31T03:07:21.250Z,1012.69
2017-03-31T03:08:32.641Z,1012.66
2017-03-31T03:09:43.829Z,1012.67
2017-03-31T03:10:55.419Z,1012.64
2017-03-31T03:12:06.416Z,1012.62
2017-03-31T03:13:17.406Z,1012.61
2017-03-31T03:14:28.420Z,1012.59
2017-03-31T03:15:39.664Z,1012.56
2017-03-31T03:16:50.655Z,1012.57
2017-03-31T03:18:01.641Z,1012.53
2017-03-31T03:19:12.642Z,1012.48
2017-03-31T03:20:23.632Z,1012.5
2017-03-31T03:21:34.651Z,1012.47
2017-03-31T03:22:45.635Z,1012.43
2017-03-31T03:23:56.833Z,1012.42
2017-03-31T03:25:07.863Z,1012.33
2017-03-31T03:26:18.853Z,1012.31
2017-03-31T03:27:30.078Z,1012.29
2017-03-31T03:28:41.063Z,1012.3
2017-03-31T03:29:52.042Z,1012.34
2017-03-31T03:31:03.020Z,1012.3
2017-03-31T03:32:13.997Z,1012.29
2017-03-31T03:33:24.976Z,1012.26
2017-03-31T03:34:36.163Z,1012.25
2017-03-31T03:35:47.199Z,1012.25
2017-03-31T03:36:58.382Z,1012.27
2017-03-31T03:38:09.359Z,1012.22
2017-03-31T03:39:20.550Z,1012.19
2017-03-31T03:40:31.934Z,1012.16
2017-03-31T03:41:42.920Z,1012.18
2017-03-31T03:42:54.111Z,1012.14
2017-03-31T03:44:05.095Z,1012.09
2017-03-31T03:45:16.081Z,1012.11
2017-03-31T03:46:27.068Z,1012.07
2017-03-31T03:47:38.108Z,1012.05
2017-03-31T03:48:49.086Z,1012.01
2017-03-31T03:50:00.274Z,1012.01
2017-03-31T03:51:11.262Z,1011.98
2017-03-31T03:52:22.252Z,1011.96
2017-03-31T03:53:33.441Z,1012
2017-03-31T03:54:44.419Z,1011.98
2017-03-31T03:55:55.405Z,1011.96
2017-03-31T03:57:06.652Z,1011.9
2017-03-31T03:58:17.639Z,1011.89
2017-03-31T03:59:28.626Z,1011.93
2017-03-31T04:00:39.609Z,1011.9
2017-03-31T04:01:50.595Z,1011.86
2017-03-31T04:03:01.619Z,1011.89
2017-03-31T04:04:12.602Z,1011.87
2017-03-31T04:05:23.583Z,1011.9
2017-03-31T04:06:34.567Z,1011.89
2017-03-31T04:07:45.799Z,1011.84
2017-03-31T04:08:56.773Z,1011.82
2017-03-31T04:10:07.753Z,1011.83
2017-03-31T04:11:18.739Z,1011.8
2017-03-31T04:12:29.722Z,1011.76
2017-03-31T04:13:40.712Z,1011.75
2017-03-31T04:14:51.701Z,1011.79
2017-03-31T04:16:02.689Z,1011.69
2017-03-31T04:17:13.721Z,1011.69
2017-03-31T04:18:24.709Z,1011.63
2017-03-31T04:19:35.692Z,1011.62
2017-03-31T04:20:46.880Z,1011.59
2017-03-31T04:21:57.875Z,1011.56
2017-03-31T04:23:08.870Z,1011.53
2017-03-31T04:24:20.125Z,1011.54
2017-03-31T04:25:31.312Z,1011.55
2017-03-31T04:26:42.307Z,1011.52
2017-03-31T04:27:53.297Z,1011.53
2017-03-31T04:29:04.476Z,1011.48
2017-03-31T04:30:15.469Z,1011.5
2017-03-31T04:31:26.460Z,1011.43
2017-03-31T04:32:37.447Z,1011.45
2017-03-31T04:33:48.886Z,1011.46
2017-03-31T04:34:59.879Z,1011.45
2017-03-31T04:36:10.860Z,1011.46
2017-03-31T04:37:21.850Z,1011.43
2017-03-31T04:38:32.844Z,1011.45
2017-03-31T04:39:43.830Z,1011.38
2017-03-31T04:40:54.815Z,1011.4
2017-03-31T04:42:05.803Z,1011.37
2017-03-31T04:43:16.793Z,1011.4
2017-03-31T04:44:28.029Z,1011.38
2017-03-31T04:45:39.012Z,1011.36
2017-03-31T04:46:49.994Z,1011.38
2017-03-31T04:48:01.188Z,1011.37
2017-03-31T04:49:12.176Z,1011.33
2017-03-31T04:50:23.359Z,1011.31
2017-03-31T04:51:34.540Z,1011.32
2017-03-31T04:52:45.731Z,1011.31
2017-03-31T04:53:56.712Z,1011.32
2017-03-31T04:55:07.686Z,1011.26
2017-03-31T04:56:18.664Z,1011.27
2017-03-31T04:57:29.649Z,1011.26
2017-03-31T04:58:40.639Z,1011.28
2017-03-31T04:59:51.622Z,1011.26
2017-03-31T05:01:02.818Z,1011.24
2017-03-31T05:02:13.817Z,1011.24
2017-03-31T05:03:24.810Z,1011.23
2017-03-31T05:04:35.794Z,1011.19
2017-03-31T05:05:47.027Z,1011.23
2017-03-31T05:06:58.008Z,1011.21
2017-03-31T05:08:09.201Z,1011.18
2017-03-31T05:09:20.187Z,1011.17
2017-03-31T05:10:31.175Z,1011.17
2017-03-31T05:11:42.162Z,1011.14
2017-03-31T05:12:53.151Z,1011.11
2017-03-31T05:14:04.131Z,1011.1
2017-03-31T05:15:15.121Z,1011.11
2017-03-31T05:16:26.147Z,1011.09
2017-03-31T05:17:37.140Z,1011.12
2017-03-31T05:18:48.129Z,1011.1
2017-03-31T05:19:59.111Z,1011.09
2017-03-31T05:21:10.308Z,1011.11
2017-03-31T05:22:21.501Z,1011.07
2017-03-31T05:23:32.690Z,1011.06
2017-03-31T05:24:43.668Z,1011.07
2017-03-31T05:25:54.649Z,1011.08
2017-03-31T05:27:05.690Z,1011.08
2017-03-31T05:28:16.681Z,1011.04
2017-03-31T05:29:28.071Z,1011.09
2017-03-31T05:30:39.260Z,1011.09
2017-03-31T05:31:50.253Z,1011.12
2017-03-31T05:33:01.246Z,1011.1
2017-03-31T05:34:12.238Z,1011.1
2017-03-31T05:35:23.230Z,1011.08
2017-03-31T05:36:34.217Z,1011.06
2017-03-31T05:37:45.194Z,1011.04
2017-03-31T05:38:56.183Z,1011.07
2017-03-31T05:40:07.381Z,1011.05
2017-03-31T05:41:18.575Z,1011.04
2017-03-31T05:42:29.572Z,1011.03
2017-03-31T05:43:40.816Z,1011.02
2017-03-31T05:44:51.799Z,1011.02
2017-03-31T05:46:02.790Z,1011.01
2017-03-31T05:47:13.787Z,1010.99
2017-03-31T05:48:24.981Z,1011
2017-03-31T05:49:36.167Z,1010.97
2017-03-31T05:50:47.148Z,1010.94
2017-03-31T05:51:58.331Z,1010.93
2017-03-31T05:53:09.570Z,1010.93
2017-03-31T05:54:20.764Z,1010.94
2017-03-31T05:55:31.753Z,1010.92
2017-03-31T05:56:42.742Z,1010.87
2017-03-31T05:57:53.734Z,1010.91
2017-03-31T05:59:04.917Z,1010.86
2017-03-31T06:00:16.106Z,1010.83
2017-03-31T06:01:27.292Z,1010.81
2017-03-31T06:02:38.287Z,1010.82
2017-03-31T06:03:49.524Z,1010.8
2017-03-31T06:05:00.505Z,1010.81
2017-03-31T06:06:11.499Z,1010.8
2017-03-31T06:07:22.493Z,1010.79
2017-03-31T06:08:33.674Z,1010.77
2017-03-31T06:09:44.661Z,1010.79
2017-03-31T06:10:55.647Z,1010.8
2017-03-31T06:12:06.836Z,1010.8
2017-03-31T06:13:17.827Z,1010.82
2017-03-31T06:14:28.821Z,1010.76
2017-03-31T06:15:39.814Z,1010.81
2017-03-31T06:16:50.803Z,1010.8
2017-03-31T06:18:02.000Z,1010.79
2017-03-31T06:19:12.994Z,1010.81
2017-03-31T06:20:24.039Z,1010.76
2017-03-31T06:21:35.234Z,1010.73
2017-03-31T06:22:46.238Z,1010.73
2017-03-31T06:23:57.422Z,1010.74
2017-03-31T06:25:08.619Z,1010.74
2017-03-31T06:26:19.605Z,1010.71
2017-03-31T06:27:30.596Z,1010.73
2017-03-31T06:28:41.599Z,1010.68
2017-03-31T06:29:52.785Z,1010.68
2017-03-31T06:31:03.772Z,1010.62
2017-03-31T06:32:14.770Z,1010.63
2017-03-31T06:33:25.964Z,1010.58
2017-03-31T06:34:37.152Z,1010.58
2017-03-31T06:35:48.391Z,1010.61
2017-03-31T06:36:59.585Z,1010.61
2017-03-31T06:38:10.793Z,1010.64
2017-03-31T06:39:21.980Z,1010.62
2017-03-31T06:40:33.178Z,1010.65
2017-03-31T06:41:44.167Z,1010.64
2017-03-31T06:42:55.165Z,1010.67
2017-03-31T06:44:06.157Z,1010.65
2017-03-31T06:45:17.387Z,1010.67
2017-03-31T06:46:28.582Z,1010.68
2017-03-31T06:47:40.177Z,1010.68
2017-03-31T06:48:51.161Z,1010.69
2017-03-31T06:50:02.151Z,1010.71
2017-03-31T06:51:13.157Z,1010.71
2017-03-31T06:52:24.152Z,1010.73
2017-03-31T06:53:35.137Z,1010.74
2017-03-31T06:54:46.128Z,1010.76
2017-03-31T06:55:57.320Z,1010.76
2017-03-31T06:57:08.531Z,1010.77
2017-03-31T06:58:19.725Z,1010.72
2017-03-31T06:59:30.730Z,1010.73
2017-03-31T07:00:41.928Z,1010.77
2017-03-31T07:01:52.920Z,1010.78
2017-03-31T07:03:04.123Z,1010.78
2017-03-31T07:04:15.326Z,1010.84
2017-03-31T07:05:26.319Z,1010.94
2017-03-31T07:06:37.317Z,1011.05
2017-03-31T07:07:48.316Z,1011.28
2017-03-31T07:08:59.315Z,1011.83
2017-03-31T07:10:10.518Z,1012.19
2017-03-31T07:11:21.514Z,1012.06
2017-03-31T07:12:32.503Z,1011.99
2017-03-31T07:13:43.489Z,1011.75
2017-03-31T07:14:54.698Z,1011.82
2017-03-31T07:16:05.747Z,1011.76
2017-03-31T07:17:16.757Z,1011.75
2017-03-31T07:18:27.759Z,1011.6
2017-03-31T07:19:38.762Z,1011.65
2017-03-31T07:20:49.775Z,1011.6
2017-03-31T07:22:00.976Z,1011.56
2017-03-31T07:23:11.986Z,1011.57
2017-03-31T07:24:22.991Z,1011.47
2017-03-31T07:25:34.006Z,1011.63
2017-03-31T07:26:45.022Z,1011.51
2017-03-31T07:27:56.038Z,1011.63
2017-03-31T07:29:07.038Z,1011.7
2017-03-31T07:30:18.041Z,1011.65
2017-03-31T07:31:29.042Z,1011.63
2017-03-31T07:32:40.494Z,1011.54
2017-03-31T07:33:51.695Z,1011.62
2017-03-31T07:35:02.704Z,1011.61
2017-03-31T07:36:13.703Z,1011.44
2017-03-31T07:37:24.905Z,1011.47
2017-03-31T07:38:36.117Z,1011.47
2017-03-31T07:39:47.123Z,1011.43
2017-03-31T07:40:58.129Z,1011.45
2017-03-31T07:42:09.140Z,1011.49
2017-03-31T07:43:20.143Z,1011.26
2017-03-31T07:44:31.149Z,1010.88
2017-03-31T07:45:42.359Z,1011.09
2017-03-31T07:46:53.363Z,1011.04
2017-03-31T07:48:04.429Z,1010.81
2017-03-31T07:49:15.444Z,1010.64
2017-03-31T07:50:26.454Z,1010.6
2017-03-31T07:51:37.462Z,1010.6
2017-03-31T07:52:48.674Z,1010.55
2017-03-31T07:53:59.925Z,1010.53
2017-03-31T07:55:10.936Z,1010.48
2017-03-31T07:56:21.949Z,1010.41
2017-03-31T07:57:33.001Z,1010.38
2017-03-31T07:58:44.207Z,1010.36
2017-03-31T07:59:55.413Z,1010.36
2017-03-31T08:01:06.423Z,1010.37
2017-03-31T08:02:17.437Z,1010.34
2017-03-31T08:03:28.433Z,1010.3
2017-03-31T08:04:39.448Z,1010.31
2017-03-31T08:05:50.458Z,1010.34
2017-03-31T08:07:01.476Z,1010.32
2017-03-31T08:08:12.525Z,1010.32
2017-03-31T08:09:23.530Z,1010.35
2017-03-31T08:10:34.540Z,1010.29
2017-03-31T08:11:45.547Z,1010.27
2017-03-31T08:12:56.954Z,1010.32
2017-03-31T08:14:08.191Z,1010.29
2017-03-31T08:15:19.199Z,1010.28
2017-03-31T08:16:30.207Z,1010.29
2017-03-31T08:17:41.203Z,1010.3
2017-03-31T08:18:52.409Z,1010.3
2017-03-31T08:20:03.413Z,1010.28
2017-03-31T08:21:14.415Z,1010.3
2017-03-31T08:22:25.419Z,1010.28
2017-03-31T08:23:36.674Z,1010.28
2017-03-31T08:24:47.683Z,1010.3
2017-03-31T08:25:58.686Z,1010.3
2017-03-31T08:27:09.733Z,1010.25
2017-03-31T08:28:20.745Z,1010.32
2017-03-31T08:29:31.756Z,1010.26
2017-03-31T08:30:42.958Z,1010.28
2017-03-31T08:31:53.976Z,1010.23
2017-03-31T08:33:05.245Z,1010.26
2017-03-31T08:34:16.460Z,1010.26
2017-03-31T08:35:27.466Z,1010.32
2017-03-31T08:36:38.473Z,1010.32
2017-03-31T08:37:49.482Z,1010.32
2017-03-31T08:39:00.493Z,1010.36
2017-03-31T08:40:11.504Z,1010.32
2017-03-31T08:41:22.711Z,1010.32
2017-03-31T08:42:33.727Z,1010.28
2017-03-31T08:43:44.744Z,1010.28
2017-03-31T08:44:55.748Z,1010.28
2017-03-31T08:46:06.761Z,1010.33
2017-03-31T08:47:17.977Z,1010.28
2017-03-31T08:48:28.979Z,1010.31
2017-03-31T08:49:40.049Z,1010.3
2017-03-31T08:50:51.081Z,1010.35
2017-03-31T08:52:02.297Z,1010.34
2017-03-31T08:53:13.309Z,1010.3
2017-03-31T08:54:24.316Z,1010.28
2017-03-31T08:55:35.325Z,1010.27
2017-03-31T08:56:46.334Z,1010.27
2017-03-31T08:57:57.556Z,1010.27
2017-03-31T08:59:08.616Z,1010.25
2017-03-31T09:00:19.625Z,1010.16
2017-03-31T09:01:30.638Z,1010.22
2017-03-31T09:02:41.854Z,1010.23
2017-03-31T09:03:52.860Z,1010.23
2017-03-31T09:05:03.870Z,1010.2
2017-03-31T09:06:15.084Z,1010.18
2017-03-31T09:07:26.105Z,1010.24
2017-03-31T09:08:37.304Z,1010.22
2017-03-31T09:09:48.373Z,1010.23
2017-03-31T09:10:59.380Z,1010.22
2017-03-31T09:12:10.393Z,1010.21
2017-03-31T09:13:21.403Z,1010.3
2017-03-31T09:14:32.413Z,1010.28
2017-03-31T09:15:43.629Z,1010.26
2017-03-31T09:16:54.644Z,1010.27
2017-03-31T09:18:05.662Z,1010.19
2017-03-31T09:19:16.672Z,1010.17
2017-03-31T09:20:27.682Z,1010.2
2017-03-31T09:21:38.686Z,1010.22
2017-03-31T09:22:49.695Z,1010.21
2017-03-31T09:24:00.725Z,1010.19
2017-03-31T09:25:11.738Z,1010.21
2017-03-31T09:26:22.944Z,1010.19
2017-03-31T09:27:34.202Z,1010.16
2017-03-31T09:28:45.410Z,1010.16
2017-03-31T09:29:56.635Z,1010.2
2017-03-31T09:31:07.649Z,1010.19
2017-03-31T09:32:18.653Z,1010.24
2017-03-31T09:33:29.662Z,1010.27
2017-03-31T09:34:41.067Z,1010.34
2017-03-31T09:35:52.074Z,1010.19
2017-03-31T09:37:03.135Z,1010.18
2017-03-31T09:38:14.141Z,1010.21
2017-03-31T09:39:25.348Z,1010.12
2017-03-31T09:40:36.348Z,1010.15
2017-03-31T09:41:47.366Z,1010.17
2017-03-31T09:42:58.370Z,1010.15
2017-03-31T09:44:09.401Z,1010.12
2017-03-31T09:45:20.410Z,1010.08
2017-03-31T09:46:31.430Z,1010.11
2017-03-31T09:47:42.687Z,1010.16
2017-03-31T09:48:53.890Z,1010.12
2017-03-31T09:50:05.096Z,1010.09
2017-03-31T09:51:16.142Z,1010.1
2017-03-31T09:52:27.152Z,1010.05
2017-03-31T09:53:38.160Z,1010.07
2017-03-31T09:54:49.372Z,1010.04
2017-03-31T09:56:00.372Z,1010.03
2017-03-31T09:57:11.379Z,1010.05
2017-03-31T09:58:22.382Z,1010.04
2017-03-31T09:59:33.389Z,1010.04
2017-03-31T10:00:44.393Z,1010.04
2017-03-31T10:01:55.607Z,1010.05
2017-03-31T10:03:06.620Z,1010.11
2017-03-31T10:04:17.628Z,1010.14
2017-03-31T10:05:28.927Z,1010.13
2017-03-31T10:06:39.925Z,1010.13
2017-03-31T10:07:50.930Z,1010.18
2017-03-31T10:09:01.952Z,1010.21
2017-03-31T10:10:12.964Z,1010.17
2017-03-31T10:11:23.970Z,1010.51
2017-03-31T10:12:34.980Z,1010.68
2017-03-31T10:13:45.994Z,1011.18
2017-03-31T10:14:57.247Z,1011
2017-03-31T10:16:08.253Z,1010.52
2017-03-31T10:17:19.268Z,1011.32
2017-03-31T10:18:30.282Z,1011.23
2017-03-31T10:19:41.292Z,1010.9
2017-03-31T10:20:52.299Z,1011.32
2017-03-31T10:22:03.329Z,1010.59
2017-03-31T10:23:14.344Z,1010.26
2017-03-31T10:24:25.754Z,1010.16
2017-03-31T10:25:37.217Z,1010.4
2017-03-31T10:26:48.223Z,1010.15
2017-03-31T10:27:59.440Z,1009.86
2017-03-31T10:29:10.655Z,1009.67
2017-03-31T10:30:21.672Z,1009.56
2017-03-31T10:31:32.878Z,1009.54
2017-03-31T10:32:44.086Z,1009.53
2017-03-31T10:33:55.091Z,1009.53
2017-03-31T10:35:06.093Z,1009.57
2017-03-31T10:36:17.101Z,1009.61
2017-03-31T10:37:28.361Z,1009.6
2017-03-31T10:38:39.380Z,1009.57
2017-03-31T10:39:50.388Z,1009.57
2017-03-31T10:41:01.395Z,1009.61
2017-03-31T10:42:12.400Z,1009.57
2017-03-31T10:43:23.407Z,1009.57
2017-03-31T10:44:34.410Z,1009.55
2017-03-31T10:45:45.624Z,1009.55
2017-03-31T10:46:56.886Z,1009.55
2017-03-31T10:48:07.888Z,1009.51
2017-03-31T10:49:19.101Z,1009.56
2017-03-31T10:50:30.312Z,1009.54
2017-03-31T10:51:41.314Z,1009.5
2017-03-31T10:52:52.326Z,1009.54
2017-03-31T10:54:03.529Z,1009.52
2017-03-31T10:55:14.742Z,1009.45
2017-03-31T10:56:25.753Z,1009.41
2017-03-31T10:57:37.008Z,1009.37
2017-03-31T10:58:48.213Z,1009.35
2017-03-31T10:59:59.235Z,1009.32
2017-03-31T11:01:10.243Z,1009.27
2017-03-31T11:02:21.252Z,1009.28
2017-03-31T11:03:32.335Z,1009.31
2017-03-31T11:04:43.540Z,1009.3
2017-03-31T11:05:54.547Z,1009.29
2017-03-31T11:07:05.551Z,1009.32
2017-03-31T11:08:16.552Z,1009.37
2017-03-31T11:09:27.565Z,1009.35
2017-03-31T11:10:38.568Z,1009.33
2017-03-31T11:11:49.569Z,1009.34
2017-03-31T11:13:00.570Z,1009.33
2017-03-31T11:14:11.585Z,1009.3
2017-03-31T11:15:22.623Z,1009.29
2017-03-31T11:16:33.819Z,1009.28
2017-03-31T11:17:44.829Z,1009.28
2017-03-31T11:18:55.832Z,1009.28
2017-03-31T11:20:07.091Z,1009.22
2017-03-31T11:21:18.094Z,1009.24
2017-03-31T11:22:29.100Z,1009.18
2017-03-31T11:23:40.104Z,1009.14
2017-03-31T11:24:51.310Z,1009.15
2017-03-31T11:26:02.322Z,1009.14
2017-03-31T11:27:13.329Z,1009.15
2017-03-31T11:28:24.341Z,1009.13
2017-03-31T11:29:35.399Z,1009.05
2017-03-31T11:30:46.807Z,1008.97
2017-03-31T11:31:57.811Z,1009.04
2017-03-31T11:33:09.024Z,1009.02
2017-03-31T11:34:20.256Z,1009.02
2017-03-31T11:35:31.260Z,1009.02
2017-03-31T11:36:42.294Z,1008.97
2017-03-31T11:37:53.318Z,1008.92
2017-03-31T11:39:04.326Z,1008.86
2017-03-31T11:40:15.788Z,1008.9
2017-03-31T11:41:26.787Z,1008.88
2017-03-31T11:42:38.195Z,1008.9
2017-03-31T11:43:49.202Z,1008.86
2017-03-31T11:45:00.207Z,1008.9
2017-03-31T11:46:11.220Z,1008.89
2017-03-31T11:47:22.226Z,1008.85
2017-03-31T11:48:33.440Z,1008.81
2017-03-31T11:49:44.438Z,1008.76
2017-03-31T11:50:55.450Z,1008.78
2017-03-31T11:52:06.458Z,1008.77
2017-03-31T11:53:17.482Z,1008.71
2017-03-31T11:54:28.493Z,1008.73
2017-03-31T11:55:39.699Z,1008.75
2017-03-31T11:56:50.713Z,1008.69
2017-03-31T11:58:01.981Z,1008.67
2017-03-31T11:59:12.983Z,1008.73
2017-03-31T12:00:23.990Z,1008.74
2017-03-31T12:01:34.999Z,1008.73
2017-03-31T12:02:46.001Z,1008.75
2017-03-31T12:03:57.026Z,1008.68
2017-03-31T12:05:08.026Z,1008.7
2017-03-31T12:06:19.234Z,1008.71
2017-03-31T12:07:30.495Z,1008.73
2017-03-31T12:08:41.501Z,1008.69
2017-03-31T12:09:52.510Z,1008.86
2017-03-31T12:11:03.520Z,1008.86
2017-03-31T12:12:14.733Z,1009.03
2017-03-31T12:13:25.742Z,1008.72
2017-03-31T12:14:36.756Z,1008.62
2017-03-31T12:15:47.775Z,1008.65
2017-03-31T12:16:58.788Z,1008.66
2017-03-31T12:18:10.045Z,1008.66
2017-03-31T12:19:21.053Z,1008.67
2017-03-31T12:20:32.053Z,1008.64
2017-03-31T12:21:43.052Z,1008.62
2017-03-31T12:22:54.074Z,1008.55
2017-03-31T12:24:05.277Z,1008.5
2017-03-31T12:25:16.279Z,1008.44
2017-03-31T12:26:27.285Z,1008.43
2017-03-31T12:27:38.294Z,1008.45
2017-03-31T12:28:49.503Z,1008.46
2017-03-31T12:30:00.711Z,1008.39
2017-03-31T12:31:11.725Z,1008.37
2017-03-31T12:32:22.730Z,1008.38
2017-03-31T12:33:33.749Z,1008.33
2017-03-31T12:34:44.814Z,1008.31
2017-03-31T12:35:56.235Z,1008.29
2017-03-31T12:37:07.643Z,1008.28
2017-03-31T12:38:18.857Z,1008.24
2017-03-31T12:39:29.865Z,1008.21
2017-03-31T12:40:41.082Z,1008.16
2017-03-31T12:41:52.081Z,1008.16
2017-03-31T12:43:03.097Z,1008.16
2017-03-31T12:44:14.101Z,1008.16
2017-03-31T12:45:25.147Z,1008.08
2017-03-31T12:46:36.386Z,1008.03
2017-03-31T12:47:47.594Z,1008.04
2017-03-31T12:48:58.831Z,1008.02
2017-03-31T12:50:10.039Z,1008.02
2017-03-31T12:51:21.055Z,1008.01
2017-03-31T12:52:32.060Z,1008.06
2017-03-31T12:53:43.095Z,1008.06
2017-03-31T12:54:54.102Z,1008
2017-03-31T12:56:05.357Z,1008
2017-03-31T12:57:16.362Z,1008.04
2017-03-31T12:58:27.366Z,1007.99
2017-03-31T12:59:38.392Z,1008.01
2017-03-31T13:00:49.417Z,1007.97
2017-03-31T13:02:00.423Z,1007.97
2017-03-31T13:03:11.435Z,1007.94
2017-03-31T13:04:22.441Z,1007.91
2017-03-31T13:05:33.440Z,1007.91
2017-03-31T13:06:44.446Z,1007.94
2017-03-31T13:07:55.504Z,1007.88
2017-03-31T13:09:06.507Z,1007.9
2017-03-31T13:10:17.506Z,1007.88
2017-03-31T13:11:28.523Z,1007.86
2017-03-31T13:12:39.528Z,1007.84
2017-03-31T13:13:50.731Z,1007.81
2017-03-31T13:15:01.736Z,1007.82
2017-03-31T13:16:12.745Z,1007.81
2017-03-31T13:17:23.807Z,1007.78
2017-03-31T13:18:35.010Z,1007.77
2017-03-31T13:19:46.016Z,1007.74
2017-03-31T13:20:57.032Z,1007.72
2017-03-31T13:22:08.042Z,1007.72
2017-03-31T13:23:19.054Z,1007.7
2017-03-31T13:24:30.260Z,1007.7
2017-03-31T13:25:41.468Z,1007.65
2017-03-31T13:26:52.467Z,1007.61
2017-03-31T13:28:03.921Z,1007.59
2017-03-31T13:29:14.924Z,1007.59
2017-03-31T13:30:26.139Z,1007.54
2017-03-31T13:31:37.142Z,1007.59
2017-03-31T13:32:48.155Z,1007.63
2017-03-31T13:33:59.424Z,1007.67
2017-03-31T13:35:10.417Z,1007.64
2017-03-31T13:36:21.422Z,1007.67
2017-03-31T13:37:32.433Z,1007.68
2017-03-31T13:38:43.431Z,1007.71
2017-03-31T13:39:54.432Z,1007.65
2017-03-31T13:41:05.439Z,1007.68
2017-03-31T13:42:16.447Z,1007.68
2017-03-31T13:43:27.463Z,1007.64
2017-03-31T13:44:38.460Z,1007.59
2017-03-31T13:45:49.513Z,1007.55
2017-03-31T13:47:00.517Z,1007.59
2017-03-31T13:48:11.516Z,1007.58
2017-03-31T13:49:22.712Z,1007.6
2017-03-31T13:50:33.919Z,1007.6
2017-03-31T13:51:44.919Z,1007.59
2017-03-31T13:52:55.945Z,1007.6
2017-03-31T13:54:06.959Z,1007.58
2017-03-31T13:55:18.013Z,1007.58
2017-03-31T13:56:29.016Z,1007.51
2017-03-31T13:57:40.019Z,1007.52
2017-03-31T13:58:51.228Z,1007.46
2017-03-31T14:00:02.232Z,1007.45
2017-03-31T14:01:13.242Z,1007.47
2017-03-31T14:02:24.245Z,1007.47
2017-03-31T14:03:35.244Z,1007.42
2017-03-31T14:04:46.249Z,1007.38
2017-03-31T14:05:57.509Z,1007.38
2017-03-31T14:07:08.520Z,1007.36
2017-03-31T14:08:19.728Z,1007.36
2017-03-31T14:09:30.729Z,1007.32
2017-03-31T14:10:41.725Z,1007.27
2017-03-31T14:11:52.982Z,1007.27
2017-03-31T14:13:03.987Z,1007.26
2017-03-31T14:14:14.997Z,1007.26
2017-03-31T14:15:26.200Z,1007.33
2017-03-31T14:16:37.198Z,1007.26
2017-03-31T14:17:48.206Z,1007.23
2017-03-31T14:18:59.216Z,1007.25
2017-03-31T14:20:10.217Z,1007.25
2017-03-31T14:21:21.220Z,1007.24
2017-03-31T14:22:32.223Z,1007.21